createdAt,value
2023-01-19T00:00:44.092Z,25.02
2023-01-19T00:03:16.351Z,25.55
2023-01-19T00:05:44.954Z,25.02
2023-01-19T00:08:16.091Z,28.98
2023-01-19T00:10:46.524Z,23.60
2023-01-19T00:13:16.587Z,25.42
2023-01-19T00:15:45.239Z,23.27
2023-01-19T00:18:13.582Z,26.50
2023-01-19T00:20:42.301Z,26.98
2023-01-19T00:23:10.479Z,25.75
2023-01-19T00:25:42.556Z,28.45
2023-01-19T00:28:11.866Z,26.08
2023-01-19T00:30:42.334Z,26.52
2023-01-19T00:33:11.301Z,24.77
2023-01-19T00:35:39.562Z,24.48
2023-01-19T00:38:07.701Z,20.90
2023-01-19T00:40:35.940Z,24.73
2023-01-19T00:43:05.189Z,26.80
2023-01-19T00:45:35.147Z,25.92
2023-01-19T00:48:05.019Z,24.13
2023-01-19T00:50:34.486Z,21.77
2023-01-19T00:53:03.423Z,22.80
2023-01-19T00:55:33.437Z,25.00
2023-01-19T00:58:02.974Z,22.85
2023-01-19T01:00:31.591Z,24.02
2023-01-19T01:03:00.287Z,21.70
2023-01-19T01:05:30.016Z,20.15
2023-01-19T01:07:58.206Z,19.33
2023-01-19T01:10:28.076Z,18.52
2023-01-19T01:12:57.800Z,21.33
2023-01-19T01:15:27.734Z,18.90
2023-01-19T01:17:56.267Z,16.85
2023-01-19T01:20:28.775Z,17.63
2023-01-19T01:22:59.432Z,15.63
2023-01-19T01:25:28.833Z,14.00
2023-01-19T01:27:56.956Z,12.57
2023-01-19T01:30:25.222Z,12.02
2023-01-19T01:32:53.402Z,10.95
2023-01-19T01:35:21.593Z,12.40
2023-01-19T01:37:49.744Z,9.10
2023-01-19T01:40:20.627Z,8.50
2023-01-19T01:42:48.736Z,7.82
2023-01-19T01:45:31.177Z,7.05
2023-01-19T01:48:03.534Z,5.80
2023-01-19T01:50:35.789Z,6.65
2023-01-19T01:53:10.596Z,7.28
2023-01-19T01:55:47.529Z,4.05
2023-01-19T01:58:17.562Z,5.55
2023-01-19T02:01:03.300Z,5.03
2023-01-19T02:03:33.268Z,4.85
2023-01-19T02:06:07.352Z,6.43
2023-01-19T02:08:57.529Z,4.22
2023-01-19T02:11:44.678Z,6.97
2023-01-19T02:14:12.848Z,3.70
2023-01-19T02:16:42.159Z,3.70
2023-01-19T02:19:15.105Z,3.65
2023-01-19T02:21:53.068Z,3.20
2023-01-19T02:24:23.094Z,2.60
2023-01-19T02:26:52.449Z,2.38
2023-01-19T02:29:24.118Z,2.15
2023-01-19T02:31:54.088Z,2.47
2023-01-19T02:34:22.902Z,2.45
2023-01-19T02:36:55.337Z,2.42
2023-01-19T02:39:30.532Z,2.03
2023-01-19T02:42:03.780Z,4.35
2023-01-19T02:44:33.103Z,2.25
2023-01-19T02:47:01.299Z,2.33
2023-01-19T02:49:30.218Z,2.22
2023-01-19T02:51:59.041Z,3.60
2023-01-19T02:54:43.035Z,2.30
2023-01-19T02:57:27.871Z,2.08
2023-01-19T03:00:09.960Z,2.45
2023-01-19T03:02:51.140Z,1.53
2023-01-19T03:05:34.349Z,1.33
2023-01-19T03:08:12.549Z,1.20
2023-01-19T03:10:52.436Z,1.42
2023-01-19T03:13:31.210Z,1.83
2023-01-19T03:16:07.759Z,1.55
2023-01-19T03:18:39.475Z,2.53
2023-01-19T03:21:10.150Z,1.50
2023-01-19T03:23:42.718Z,1.95
2023-01-19T03:26:16.043Z,1.20
2023-01-19T03:28:47.456Z,1.25
2023-01-19T03:31:19.230Z,0.85
2023-01-19T03:33:53.211Z,0.80
2023-01-19T03:36:26.749Z,1.10
2023-01-19T03:38:56.273Z,0.85
2023-01-19T03:41:28.959Z,1.25
2023-01-19T03:43:58.034Z,0.70
2023-01-19T03:46:27.453Z,1.45
2023-01-19T03:48:56.232Z,1.95
2023-01-19T03:51:24.529Z,2.85
2023-01-19T03:53:53.102Z,0.68
2023-01-19T03:56:23.295Z,0.98
2023-01-19T03:58:54.573Z,0.85
2023-01-19T04:01:25.313Z,1.20
2023-01-19T04:03:54.309Z,1.40
2023-01-19T04:06:23.153Z,1.40
2023-01-19T04:08:52.508Z,0.80
2023-01-19T04:11:20.718Z,1.00
2023-01-19T04:13:48.859Z,1.42
2023-01-19T04:16:21.333Z,1.48
2023-01-19T04:18:49.991Z,1.67
2023-01-19T04:21:18.317Z,1.10
2023-01-19T04:23:46.456Z,1.35
2023-01-19T04:26:14.842Z,1.73
2023-01-19T04:28:43.008Z,1.25
2023-01-19T04:31:11.244Z,1.67
2023-01-19T04:33:40.862Z,1.25
2023-01-19T04:36:09.772Z,1.45
2023-01-19T04:38:38.594Z,1.88
2023-01-19T04:41:07.003Z,1.23
2023-01-19T04:43:35.255Z,1.40
2023-01-19T04:46:03.968Z,1.30
2023-01-19T04:48:32.230Z,1.48
2023-01-19T04:51:01.765Z,1.50
2023-01-19T04:53:30.083Z,1.48
2023-01-19T04:55:59.804Z,1.15
2023-01-19T04:58:28.160Z,0.80
2023-01-19T05:00:56.346Z,1.05
2023-01-19T05:03:26.471Z,0.98
2023-01-19T05:05:55.854Z,0.73
2023-01-19T05:08:25.545Z,1.08
2023-01-19T05:10:53.703Z,4.72
2023-01-19T05:13:21.908Z,0.70
2023-01-19T05:15:50.610Z,0.50
2023-01-19T05:18:19.060Z,0.50
2023-01-19T05:20:47.848Z,1.27
2023-01-19T05:23:16.023Z,0.40
2023-01-19T05:25:45.862Z,0.80
2023-01-19T05:28:15.390Z,0.68
2023-01-19T05:30:43.668Z,0.73
2023-01-19T05:33:11.873Z,0.95
2023-01-19T05:35:40.121Z,0.60
2023-01-19T05:38:08.283Z,0.57
2023-01-19T05:40:36.622Z,1.02
2023-01-19T05:43:06.211Z,0.47
2023-01-19T05:45:34.676Z,0.63
2023-01-19T05:48:03.291Z,0.55
2023-01-19T05:50:31.489Z,0.43
2023-01-19T05:53:00.329Z,0.85
2023-01-19T05:55:29.886Z,0.63
2023-01-19T05:57:58.015Z,0.45
2023-01-19T06:00:27.866Z,0.57
2023-01-19T06:02:56.211Z,0.88
2023-01-19T06:05:24.405Z,1.38
2023-01-19T06:07:52.710Z,3.05
2023-01-19T06:10:21.018Z,2.35
2023-01-19T06:12:49.796Z,2.00
2023-01-19T06:15:19.136Z,1.80
2023-01-19T06:17:48.662Z,0.98
2023-01-19T06:20:16.931Z,0.80
2023-01-19T06:22:45.141Z,0.70
2023-01-19T06:25:13.449Z,0.73
2023-01-19T06:27:46.141Z,0.90
2023-01-19T06:32:43.018Z,1.67
2023-01-19T06:35:12.984Z,0.98
2023-01-19T06:37:44.843Z,1.23
2023-01-19T06:40:24.522Z,1.48
2023-01-19T06:42:53.192Z,1.85
2023-01-19T06:45:21.499Z,2.15
2023-01-19T06:47:49.651Z,2.13
2023-01-19T06:50:19.431Z,2.33
2023-01-19T06:52:51.063Z,2.47
2023-01-19T06:55:19.503Z,2.95
2023-01-19T06:57:48.434Z,4.55
2023-01-19T07:00:18.575Z,2.67
2023-01-19T07:02:46.774Z,4.95
2023-01-19T07:05:15.027Z,6.18
2023-01-19T07:07:45.551Z,4.05
2023-01-19T07:10:15.891Z,5.72
2023-01-19T07:12:46.865Z,4.93
2023-01-19T07:15:15.712Z,4.88
2023-01-19T07:17:44.011Z,4.95
2023-01-19T07:20:14.637Z,4.57
2023-01-19T07:22:45.849Z,5.40
2023-01-19T07:25:14.706Z,5.00
2023-01-19T07:27:42.954Z,5.18
2023-01-19T07:30:12.167Z,5.28
2023-01-19T07:32:40.306Z,7.05
2023-01-19T07:35:09.002Z,5.25
2023-01-19T07:37:38.661Z,5.40
2023-01-19T07:40:09.865Z,3.88
2023-01-19T07:42:39.526Z,4.75
2023-01-19T07:45:08.533Z,5.25
2023-01-19T07:47:36.759Z,5.57
2023-01-19T07:50:05.417Z,4.75
2023-01-19T07:52:33.622Z,4.57
2023-01-19T07:55:02.079Z,4.57
2023-01-19T07:57:31.712Z,4.20
2023-01-19T08:00:00.315Z,4.65
2023-01-19T08:02:28.514Z,4.55
2023-01-19T08:04:56.751Z,4.85
2023-01-19T08:07:24.931Z,4.80
2023-01-19T08:09:53.116Z,5.28
2023-01-19T08:12:21.283Z,6.38
2023-01-19T08:14:50.844Z,5.00
2023-01-19T08:17:19.567Z,6.63
2023-01-19T08:19:47.720Z,7.00
2023-01-19T08:22:16.097Z,5.30
2023-01-19T08:24:44.291Z,4.45
2023-01-19T08:27:13.815Z,5.10
2023-01-19T08:29:41.934Z,6.53
2023-01-19T08:32:11.696Z,5.07
2023-01-19T08:34:39.913Z,6.57
2023-01-19T08:37:08.102Z,6.70
2023-01-19T08:39:36.229Z,6.95
2023-01-19T08:42:04.513Z,6.63
2023-01-19T08:44:32.684Z,7.90
2023-01-19T08:47:01.313Z,9.73
2023-01-19T08:49:30.882Z,9.23
2023-01-19T08:51:59.067Z,6.57
2023-01-19T08:54:27.239Z,7.28
2023-01-19T08:56:55.826Z,8.95
2023-01-19T08:59:23.962Z,10.98
2023-01-19T09:01:52.199Z,10.07
2023-01-19T09:04:20.534Z,9.32
2023-01-19T09:06:50.175Z,8.45
2023-01-19T09:09:18.360Z,9.48
2023-01-19T09:11:46.502Z,8.27
2023-01-19T09:14:14.657Z,10.80
2023-01-19T09:16:43.488Z,11.18
2023-01-19T09:19:11.652Z,11.55
2023-01-19T09:21:39.820Z,9.98
2023-01-19T09:24:09.997Z,11.18
2023-01-19T09:26:40.662Z,12.57
2023-01-19T09:29:08.839Z,11.13
2023-01-19T09:31:36.966Z,12.20
2023-01-19T09:34:05.151Z,11.90
2023-01-19T09:36:33.297Z,12.30
2023-01-19T09:39:01.446Z,15.20
2023-01-19T09:41:33.858Z,12.93
2023-01-19T09:44:02.236Z,15.15
2023-01-19T09:46:36.970Z,12.23
2023-01-19T09:49:12.815Z,11.43
2023-01-19T09:51:45.048Z,11.75
2023-01-19T09:54:16.383Z,11.48
2023-01-19T09:56:48.255Z,11.93
2023-01-19T09:59:23.120Z,10.18
2023-01-19T10:02:08.007Z,12.13
2023-01-19T10:04:41.025Z,10.07
2023-01-19T10:07:21.289Z,11.73
2023-01-19T10:10:04.221Z,9.70
2023-01-19T10:15:21.963Z,10.43
2023-01-19T10:18:05.493Z,10.40
2023-01-19T10:20:39.979Z,11.73
2023-01-19T10:23:23.087Z,9.93
2023-01-19T10:25:52.008Z,9.38
2023-01-19T10:28:26.746Z,9.75
2023-01-19T10:30:56.247Z,12.80
2023-01-19T10:33:24.508Z,12.95
2023-01-19T10:35:52.897Z,8.25
2023-01-19T10:38:22.357Z,8.93
2023-01-19T10:40:57.789Z,9.82
2023-01-19T10:43:48.758Z,12.05
2023-01-19T10:46:24.576Z,11.55
2023-01-19T10:48:55.480Z,8.65
2023-01-19T10:51:23.852Z,10.32
2023-01-19T10:54:01.446Z,13.50
2023-01-19T10:56:33.821Z,9.00
2023-01-19T10:59:07.763Z,7.15
2023-01-19T11:01:38.109Z,11.80
2023-01-19T11:04:23.466Z,8.80
2023-01-19T11:06:51.624Z,7.93
2023-01-19T11:09:23.589Z,9.23
2023-01-19T11:11:53.471Z,8.73
2023-01-19T11:14:25.389Z,7.05
2023-01-19T11:16:56.137Z,6.73
2023-01-19T11:19:29.739Z,9.30
2023-01-19T11:22:12.136Z,7.32
2023-01-19T11:24:40.697Z,8.85
2023-01-19T11:27:08.905Z,7.90
2023-01-19T11:29:40.627Z,9.60
2023-01-19T11:32:13.859Z,8.40
2023-01-19T11:34:42.033Z,9.30
2023-01-19T11:37:29.124Z,8.52
2023-01-19T11:39:58.920Z,9.65
2023-01-19T11:42:29.588Z,10.95
2023-01-19T11:45:06.277Z,13.18
2023-01-19T11:47:42.646Z,10.15
2023-01-19T11:50:17.215Z,9.68
2023-01-19T11:52:49.529Z,9.98
2023-01-19T11:55:23.616Z,12.23
2023-01-19T11:57:54.788Z,12.48
2023-01-19T12:00:29.902Z,13.98
2023-01-19T12:03:04.424Z,12.93
2023-01-19T12:05:35.890Z,14.52
2023-01-19T12:08:08.731Z,13.35
2023-01-19T12:10:41.732Z,11.88
2023-01-19T12:13:19.950Z,15.15
2023-01-19T12:15:54.581Z,14.32
2023-01-19T12:18:25.549Z,14.10
2023-01-19T12:20:55.847Z,14.30
2023-01-19T12:23:34.039Z,13.60
2023-01-19T12:26:15.071Z,13.68
2023-01-19T12:28:45.293Z,15.88
2023-01-19T12:31:18.538Z,13.95
2023-01-19T12:33:47.850Z,15.52
2023-01-19T12:36:38.613Z,14.95
2023-01-19T12:39:21.045Z,12.18
2023-01-19T12:41:51.272Z,15.35
2023-01-19T12:44:34.324Z,16.50
2023-01-19T12:47:22.331Z,18.83
2023-01-19T12:49:53.088Z,17.25
2023-01-19T12:52:34.795Z,20.63
2023-01-19T12:55:08.984Z,21.02
2023-01-19T12:57:41.231Z,22.05
2023-01-19T13:00:30.243Z,20.15
2023-01-19T13:03:00.997Z,22.83
2023-01-19T13:05:59.296Z,20.48
2023-01-19T13:08:31.365Z,22.13
2023-01-19T13:11:21.049Z,19.38
2023-01-19T13:14:30.933Z,21.58
2023-01-19T13:17:22.411Z,21.77
2023-01-19T13:20:20.873Z,18.98
2023-01-19T13:23:14.629Z,18.20
2023-01-19T13:25:46.059Z,17.55
2023-01-19T13:28:17.445Z,20.70
2023-01-19T13:30:55.623Z,17.20
2023-01-19T13:33:26.499Z,17.35
2023-01-19T13:35:58.828Z,17.70
2023-01-19T13:38:32.961Z,22.90
2023-01-19T13:41:04.103Z,22.13
2023-01-19T13:43:37.856Z,20.15
2023-01-19T13:46:07.266Z,22.33
2023-01-19T13:48:35.766Z,21.75
2023-01-19T13:51:06.138Z,23.38
2023-01-19T13:53:36.714Z,21.77
2023-01-19T13:56:22.244Z,24.20
2023-01-19T13:59:10.006Z,20.40
2023-01-19T14:01:40.220Z,20.48
2023-01-19T14:04:31.020Z,18.83
2023-01-19T14:07:02.520Z,20.27
2023-01-19T14:09:32.411Z,23.15
2023-01-19T14:12:12.280Z,20.70
2023-01-19T14:14:40.806Z,18.73
2023-01-19T14:17:22.667Z,16.33
2023-01-19T14:19:51.385Z,22.95
2023-01-19T14:22:19.781Z,18.98
2023-01-19T14:24:49.311Z,19.15
2023-01-19T14:27:25.390Z,15.88
2023-01-19T14:29:55.042Z,18.48
2023-01-19T14:32:25.321Z,16.70
2023-01-19T14:35:13.304Z,18.02
2023-01-19T14:37:49.374Z,15.05
2023-01-19T14:40:21.725Z,17.05
2023-01-19T14:42:54.122Z,16.05
2023-01-19T14:45:25.053Z,14.35
2023-01-19T14:47:59.599Z,17.17
2023-01-19T14:50:30.912Z,14.30
2023-01-19T14:53:01.883Z,14.80
2023-01-19T14:55:36.739Z,16.50
2023-01-19T14:58:11.679Z,15.77
2023-01-19T15:00:40.342Z,16.38
2023-01-19T15:03:09.986Z,19.10
2023-01-19T15:05:54.760Z,20.88
2023-01-19T15:08:28.509Z,23.33
2023-01-19T15:10:59.422Z,17.70
2023-01-19T15:13:28.775Z,18.40
2023-01-19T15:15:58.532Z,17.42
2023-01-19T15:18:28.073Z,17.98
2023-01-19T15:21:02.751Z,24.42
2023-01-19T15:23:31.213Z,18.63
2023-01-19T15:26:03.236Z,21.17
2023-01-19T15:28:34.268Z,19.15
2023-01-19T15:31:02.692Z,20.50
2023-01-19T15:33:31.867Z,19.90
2023-01-19T15:36:00.224Z,21.50
2023-01-19T15:38:28.380Z,20.20
2023-01-19T15:40:56.705Z,22.08
2023-01-19T15:43:26.220Z,20.60
2023-01-19T15:46:01.559Z,21.00
2023-01-19T15:48:30.150Z,25.33
2023-01-19T15:50:58.421Z,22.52
2023-01-19T15:53:27.373Z,22.92
2023-01-19T15:55:57.090Z,23.60
2023-01-19T15:58:26.812Z,23.42
2023-01-19T16:00:55.684Z,23.80
2023-01-19T16:03:23.946Z,25.23
2023-01-19T16:05:52.124Z,22.13
2023-01-19T16:08:21.485Z,23.45
2023-01-19T16:10:49.750Z,23.83
2023-01-19T16:13:18.151Z,21.65
2023-01-19T16:15:47.787Z,23.20
2023-01-19T16:18:16.407Z,24.38
2023-01-19T16:20:45.010Z,28.05
2023-01-19T16:23:15.532Z,21.88
2023-01-19T16:25:44.459Z,21.65
2023-01-19T16:28:13.166Z,23.40
2023-01-19T16:30:41.350Z,24.20
2023-01-19T16:33:13.971Z,21.65
2023-01-19T16:35:42.324Z,22.08
2023-01-19T16:38:10.523Z,21.30
2023-01-19T16:40:38.865Z,22.17
2023-01-19T16:43:07.075Z,28.52
2023-01-19T16:45:35.249Z,24.40
2023-01-19T16:48:03.749Z,25.60
2023-01-19T16:50:33.356Z,24.30
2023-01-19T16:53:01.922Z,26.63
2023-01-19T16:55:30.113Z,22.58
2023-01-19T16:57:59.083Z,22.83
2023-01-19T17:00:27.960Z,23.70
2023-01-19T17:02:56.898Z,22.45
2023-01-19T17:05:25.896Z,23.25
2023-01-19T17:07:55.749Z,22.00
2023-01-19T17:10:25.296Z,26.73
2023-01-19T17:12:54.260Z,21.45
2023-01-19T17:15:22.743Z,23.40
2023-01-19T17:17:51.396Z,24.00
2023-01-19T17:20:20.597Z,24.75
2023-01-19T17:22:49.478Z,26.15
2023-01-19T17:25:19.639Z,23.08
2023-01-19T17:27:50.792Z,21.17
2023-01-19T17:30:20.679Z,25.00
2023-01-19T17:32:50.435Z,21.23
2023-01-19T17:35:20.271Z,20.02
2023-01-19T17:37:48.838Z,17.75
2023-01-19T17:40:19.449Z,17.52
2023-01-19T17:42:48.789Z,21.27
2023-01-19T17:45:18.406Z,23.65
2023-01-19T17:47:50.972Z,21.95
2023-01-19T17:50:19.597Z,21.38
2023-01-19T17:52:49.007Z,20.23
2023-01-19T17:55:20.423Z,21.70
2023-01-19T17:57:49.950Z,20.00
2023-01-19T18:00:20.512Z,18.77
2023-01-19T18:02:52.790Z,17.60
2023-01-19T18:05:22.936Z,19.33
2023-01-19T18:07:52.650Z,17.85
2023-01-19T18:10:26.013Z,16.13
2023-01-19T18:12:57.302Z,16.77
2023-01-19T18:15:27.752Z,18.15
2023-01-19T18:17:57.239Z,17.58
2023-01-19T18:20:25.912Z,16.67
2023-01-19T18:22:55.300Z,17.13
2023-01-19T18:25:27.970Z,18.08
2023-01-19T18:27:57.514Z,18.98
2023-01-19T18:30:27.626Z,16.60
2023-01-19T18:32:56.740Z,15.45
2023-01-19T18:35:27.305Z,16.73
2023-01-19T18:37:57.601Z,17.48
2023-01-19T18:40:31.913Z,16.90
2023-01-19T18:43:02.684Z,15.02
2023-01-19T18:45:32.459Z,18.38
2023-01-19T18:48:03.720Z,17.63
2023-01-19T18:50:34.002Z,18.38
2023-01-19T18:53:03.186Z,17.45
2023-01-19T18:55:34.021Z,19.55
2023-01-19T18:58:06.884Z,15.98
2023-01-19T19:00:37.608Z,15.82
2023-01-19T19:03:11.013Z,20.02
2023-01-19T19:05:42.212Z,17.67
2023-01-19T19:08:13.224Z,19.27
2023-01-19T19:10:45.568Z,17.92
2023-01-19T19:13:15.945Z,17.05
2023-01-19T19:15:46.128Z,15.55
2023-01-19T19:18:18.516Z,18.33
2023-01-19T19:20:49.766Z,20.27
2023-01-19T19:23:20.100Z,17.75
2023-01-19T19:25:54.739Z,16.77
2023-01-19T19:28:25.133Z,18.00
2023-01-19T19:31:06.130Z,18.38
2023-01-19T19:33:35.846Z,16.67
2023-01-19T19:38:50.581Z,16.33
2023-01-19T19:41:28.909Z,16.60
2023-01-19T19:43:59.958Z,15.68
2023-01-19T19:46:30.764Z,15.63
2023-01-19T19:49:00.134Z,15.60
2023-01-19T19:51:31.395Z,14.02
2023-01-19T19:54:01.822Z,16.65
2023-01-19T19:56:34.568Z,15.00
2023-01-19T19:59:04.230Z,14.93
2023-01-19T20:01:34.542Z,14.82
2023-01-19T20:04:09.105Z,15.02
2023-01-19T20:06:45.037Z,16.38
2023-01-19T20:09:15.447Z,15.25
2023-01-19T20:11:49.704Z,16.73
2023-01-19T20:14:18.814Z,15.68
2023-01-19T20:16:47.707Z,15.32
2023-01-19T20:19:19.116Z,14.43
2023-01-19T20:21:49.959Z,16.10
2023-01-19T20:24:22.228Z,15.90
2023-01-19T20:26:57.296Z,14.95
2023-01-19T20:29:26.703Z,14.27
2023-01-19T20:31:57.558Z,13.82
2023-01-19T20:34:33.349Z,13.40
2023-01-19T20:37:04.746Z,14.18
2023-01-19T20:39:35.984Z,15.85
2023-01-19T20:42:11.445Z,13.60
2023-01-19T20:44:40.825Z,12.77
2023-01-19T20:47:10.540Z,15.48
2023-01-19T20:49:43.584Z,13.38
2023-01-19T20:52:12.908Z,11.68
2023-01-19T20:54:42.285Z,15.05
2023-01-19T20:57:13.561Z,12.23
2023-01-19T20:59:43.134Z,13.45
2023-01-19T21:02:15.597Z,12.75
2023-01-19T21:04:45.713Z,13.95
2023-01-19T21:07:15.949Z,13.25
2023-01-19T21:09:44.269Z,12.55
2023-01-19T21:12:15.677Z,13.75
2023-01-19T21:14:49.428Z,13.45
2023-01-19T21:17:18.557Z,16.95
2023-01-19T21:19:47.014Z,13.38
2023-01-19T21:22:16.250Z,12.07
2023-01-19T21:24:44.637Z,10.55
2023-01-19T21:27:14.254Z,11.25
2023-01-19T21:29:42.805Z,12.65
2023-01-19T21:32:11.703Z,11.63
2023-01-19T21:34:40.094Z,12.65
2023-01-19T21:37:08.505Z,10.98
2023-01-19T21:39:39.211Z,15.82
2023-01-19T21:42:07.603Z,11.40
2023-01-19T21:44:37.450Z,11.80
2023-01-19T21:47:10.144Z,16.80
2023-01-19T21:49:38.529Z,13.65
2023-01-19T21:52:07.098Z,11.63
2023-01-19T21:54:35.613Z,14.88
2023-01-19T21:57:05.872Z,11.13
2023-01-19T21:59:33.983Z,12.52
2023-01-19T22:02:03.689Z,15.50
2023-01-19T22:04:31.979Z,12.38
2023-01-19T22:07:00.508Z,12.45
2023-01-19T22:09:28.766Z,13.38
2023-01-19T22:11:56.949Z,12.88
2023-01-19T22:14:25.883Z,15.63
2023-01-19T22:16:54.321Z,13.05
2023-01-19T22:19:24.545Z,14.13
2023-01-19T22:21:52.738Z,14.40
2023-01-19T22:24:20.900Z,14.70
2023-01-19T22:26:49.035Z,13.40
2023-01-19T22:29:17.206Z,14.90
2023-01-19T22:31:46.026Z,13.80
2023-01-19T22:34:15.946Z,14.60
2023-01-19T22:36:45.660Z,15.00
2023-01-19T22:39:14.339Z,13.75
2023-01-19T22:41:44.970Z,12.27
2023-01-19T22:44:14.824Z,13.80
2023-01-19T22:46:43.037Z,11.25
2023-01-19T22:49:14.131Z,12.75
2023-01-19T22:51:42.617Z,13.68
2023-01-19T22:54:12.266Z,11.23
2023-01-19T22:56:42.157Z,11.82
2023-01-19T22:59:10.695Z,10.93
2023-01-19T23:01:41.208Z,12.95
2023-01-19T23:04:12.809Z,12.27
2023-01-19T23:06:41.277Z,12.18
2023-01-19T23:09:14.322Z,15.15
2023-01-19T23:11:44.129Z,12.40
2023-01-19T23:14:16.250Z,14.25
2023-01-19T23:16:44.491Z,11.07
2023-01-19T23:19:13.900Z,10.95
2023-01-19T23:21:42.725Z,12.18
2023-01-19T23:24:12.762Z,13.00
2023-01-19T23:26:41.048Z,11.95
2023-01-19T23:29:12.364Z,13.40
2023-01-19T23:31:44.995Z,11.82
2023-01-19T23:36:44.458Z,10.18
2023-01-19T23:39:16.826Z,11.13
2023-01-19T23:41:45.142Z,12.02
2023-01-19T23:44:13.408Z,14.07
2023-01-19T23:46:41.687Z,11.77
2023-01-19T23:49:09.885Z,11.07
2023-01-19T23:51:38.275Z,11.48
2023-01-19T23:54:07.118Z,15.50
2023-01-19T23:56:38.264Z,14.30
2023-01-19T23:59:08.554Z,16.13
